This is the latest recevied weather packets stored in our database for station/object VK6WB. If no packets are shown the sender has not sent any weather packets the latest 10 day(s).
| Time | Temp. | Humidity | Pressure | Rain* | Wind** | Luminosity | Snow |
|---|---|---|---|---|---|---|---|
| 1777943404 | 16.67° C | 10% | 1022.8 hPa | 0 mm | - | 65 W/m² | - |
| 1777942805 | 16.67° C | 10% | 1022.8 hPa | 0 mm | - | 65 W/m² | - |
| 1777942204 | 15.56° C | 10% | 1022.7 hPa | 0 mm | - | 65 W/m² | - |
| 1777941604 | 15.56° C | 10% | 1022.6 hPa | 0 mm | - | 65 W/m² | - |
| 1777941005 | 8.33° C | 10% | 1022.8 hPa | 0 mm | - | 65 W/m² | - |
| 1777940404 | 15° C | 10% | 1022.5 hPa | 0 mm | - | 65 W/m² | - |
| 1777939804 | 13.89° C | 10% | 1022.5 hPa | 0 mm | - | 65 W/m² | - |
| 1777939205 | 13.33° C | 10% | 1022.4 hPa | 0 mm | - | 65 W/m² | - |
| 1777938603 | 13.33° C | 10% | 1022.3 hPa | 0 mm | - | 65 W/m² | - |
| 1777938004 | 12.78° C | 10% | 1022.2 hPa | 0 mm | - | 65 W/m² | - |
| 1777937404 | 11.67° C | 10% | 1022 hPa | 0 mm | - | 65 W/m² | - |
| 1777936804 | 11.11° C | 10% | 1021.9 hPa | 0 mm | - | 65 W/m² | - |
| 1777936204 | 11.11° C | 10% | 1021.9 hPa | 0 mm | - | 65 W/m² | - |
| 1777935604 | 10.56° C | 10% | 1021.7 hPa | 0 mm | - | 65 W/m² | - |
| 1777935004 | 10.56° C | 10% | 1021.7 hPa | 0 mm | - | 65 W/m² | - |
| 1777934404 | 10.56° C | 10% | 1021.5 hPa | 0 mm | - | 65 W/m² | - |
| 1777933805 | 10.56° C | 10% | 1021.4 hPa | 0 mm | - | 65 W/m² | - |
| 1777933204 | 11.11° C | 10% | 1021.3 hPa | 0 mm | - | 65 W/m² | - |
| 1777932604 | 11.11° C | 10% | 1021.2 hPa | 0 mm | - | 65 W/m² | - |
| 1777932004 | 11.11° C | 10% | 1021.1 hPa | 0 mm | - | 65 W/m² | - |
| 1777931404 | 11.67° C | 10% | 1021.1 hPa | 0 mm | - | 65 W/m² | - |
| 1777930803 | 11.67° C | 10% | 1021 hPa | 0 mm | - | 116 W/m² | - |
| 1777930204 | 11.67° C | 10% | 1021 hPa | 0 mm | - | 220 W/m² | - |
| 1777929604 | 11.67° C | 12% | 1021 hPa | 0 mm | - | 323 W/m² | - |
| 1777929004 | 11.67° C | 14% | 1021 hPa | 0 mm | - | 478 W/m² | - |
* Rain latest hour (hover to see other rain measurements)
** Current wind speed in m/s (hover to see current wind gust speed)